This is the latest recevied weather packets stored in our database for station/object IT9DBI-3. If no packets are shown the sender has not sent any weather packets the latest 10 day(s).
| Time | Temp. | Humidity | Pressure | Rain* | Wind** | Luminosity | Snow |
|---|---|---|---|---|---|---|---|
| 1778135467 | 19.44° C | 46% | 1011.4 hPa | - | - | - | - |
| 1778134265 | 18.89° C | 51% | 1011.4 hPa | - | - | - | - |
| 1778133059 | 18.33° C | 53% | 1011.6 hPa | - | - | - | - |
| 1778131857 | 17.78° C | 49% | 1011.5 hPa | - | - | - | - |
| 1778130656 | 16.67° C | 50% | 1011.5 hPa | - | - | - | - |
| 1778129455 | 16.67° C | 43% | 1011.5 hPa | - | - | - | - |
| 1778128254 | 16.11° C | 48% | 1011.6 hPa | - | - | - | - |
| 1778127052 | 16.11° C | 45% | 1011.6 hPa | - | - | - | - |
| 1778125851 | 16.11° C | 49% | 1011.8 hPa | - | - | - | - |
| 1778124650 | 16.67° C | 45% | 1011.5 hPa | - | - | - | - |
| 1778123448 | 16.67° C | 47% | 1011.7 hPa | - | - | - | - |
| 1778122247 | 16.67° C | 47% | 1011.6 hPa | - | - | - | - |
| 1778121046 | 17.78° C | 44% | 1011.6 hPa | - | - | - | - |
| 1778119844 | 18.89° C | 32% | 1011.5 hPa | - | - | - | - |
| 1778118643 | 18.33° C | 41% | 1011.6 hPa | - | - | - | - |
| 1778117442 | 18.89° C | 36% | 1011.2 hPa | - | - | - | - |
| 1778116240 | 17.78° C | 45% | 1011.7 hPa | - | - | - | - |
| 1778115039 | 17.78° C | 45% | 1011.2 hPa | - | - | - | - |
| 1778113838 | 19.44° C | 36% | 1011.4 hPa | - | - | - | - |
| 1778112636 | 19.44° C | 35% | 1011.6 hPa | - | - | - | - |
| 1778111435 | 20° C | 33% | 1011.6 hPa | - | - | - | - |
| 1778110234 | 20° C | 32% | 1011.6 hPa | - | - | - | - |
| 1778109032 | 20° C | 31% | 1011.8 hPa | - | - | - | - |
| 1778107831 | 20° C | 30% | 1011.8 hPa | - | - | - | - |
| 1778106629 | 20.56° C | 28% | 1011.7 hPa | - | - | - | - |
* Rain since midnight (hover to see other rain measurements)
** Current wind speed in m/s (hover to see current wind gust speed)